Time;durP1;ratioP1;P1;durP2;ratioP2;P2;SDS_P1;SDS_P2;PMS_P1;PMS_P2;Temp;Humidity;BMP_temperature;BMP_pressure;BME280_temperature;BME280_humidity;BME280_pressure;Samples;Min_cycle;Max_cycle;Signal;HPM_P1;HPM_P2
2023/04/09 00:00:37;;;;;;;17.95;9.77;;;;;;;5.23;85.25;92691.81;5109829;28;20035;-77
2023/04/09 00:03:04;;;;;;;18.77;10.77;;;;;;;5.24;86.24;92695.19;5109858;28;20031;-77
2023/04/09 00:05:30;;;;;;;20.80;11.23;;;;;;;5.23;86.33;92699.59;5111359;28;20036;-77
2023/04/09 00:07:56;;;;;;;16.85;10.50;;;;;;;5.18;86.20;92689.97;5110356;28;20042;-77
2023/04/09 00:10:21;;;;;;;14.73;8.82;;;;;;;5.44;85.82;92692.72;5112183;28;20031;-77
2023/04/09 00:12:47;;;;;;;14.70;9.73;;;;;;;5.32;86.26;92689.53;5131656;28;20046;-77
2023/04/09 00:15:14;;;;;;;19.58;10.45;;;;;;;5.21;86.22;92686.84;5131965;28;20076;-77
2023/04/09 00:17:40;;;;;;;17.33;10.43;;;;;;;5.18;86.93;92689.97;5132095;28;20031;-77
2023/04/09 00:20:06;;;;;;;24.40;10.60;;;;;;;5.13;88.43;92691.72;5113834;28;20117;-77
2023/04/09 00:22:32;;;;;;;20.73;10.30;;;;;;;5.06;88.79;92691.13;5096623;28;20026;-77
2023/04/09 00:24:58;;;;;;;15.65;10.40;;;;;;;4.99;87.56;92693.94;5132232;27;20043;-77
2023/04/09 00:27:24;;;;;;;19.70;10.20;;;;;;;4.89;87.77;92683.47;5117185;27;20052;-77
2023/04/09 00:29:53;;;;;;;15.50;9.85;;;;;;;4.82;87.72;92688.06;5116736;27;20035;-77
2023/04/09 00:32:18;;;;;;;20.92;10.48;;;;;;;4.78;88.24;92698.16;5117080;27;20027;-77
2023/04/09 00:34:44;;;;;;;19.13;10.95;;;;;;;4.89;89.35;92693.84;5117332;27;20039;-77
2023/04/09 00:37:09;;;;;;;18.13;11.27;;;;;;;4.92;92.26;92688.16;5100527;27;20062;-77
2023/04/09 00:39:35;;;;;;;17.73;10.93;;;;;;;4.91;92.26;92692.59;5135306;27;20035;-77
2023/04/09 00:42:03;;;;;;;18.30;10.52;;;;;;;4.89;91.24;92691.25;5119823;27;20032;-77
2023/04/09 00:44:29;;;;;;;16.65;10.30;;;;;;;4.83;89.75;92689.66;5104793;27;20050;-77
2023/04/09 00:46:57;;;;;;;20.17;11.95;;;;;;;5.02;93.58;92690.84;5116883;27;20035;-77
2023/04/09 00:49:25;;;;;;;19.25;11.50;;;;;;;5.18;93.59;92689.97;5135489;27;20038;-77
2023/04/09 00:51:51;;;;;;;18.00;11.57;;;;;;;5.17;94.27;92693.56;5099667;27;20477;-77
2023/04/09 00:54:17;;;;;;;19.50;11.80;;;;;;;5.14;95.24;92694.06;5135132;27;20039;-77
2023/04/09 00:56:44;;;;;;;24.13;12.02;;;;;;;5.13;95.82;92691.72;5116630;27;20031;-77
2023/04/09 00:59:10;;;;;;;21.95;12.85;;;;;;;5.08;94.99;92699.47;5134927;27;20046;-77
2023/04/09 01:01:35;;;;;;;23.85;11.60;;;;;;;5.09;94.63;92694.03;5135188;27;20114;-77
2023/04/09 01:04:01;;;;;;;18.38;11.98;;;;;;;5.06;95.24;92689.31;5134884;27;20027;-77
2023/04/09 01:06:34;;;;;;;19.55;12.13;;;;;;;5.05;95.02;92687.78;5116632;27;20067;-77
2023/04/09 01:09:17;;;;;;;19.50;11.45;;;;;;;5.04;94.93;92690.59;5116336;27;20072;-77
2023/04/09 01:11:50;;;;;;;21.33;11.70;;;;;;;5.03;95.25;92692.41;5134538;27;20047;-77
2023/04/09 01:14:34;;;;;;;20.52;12.20;;;;;;;5.05;95.72;92692.97;5116311;27;20031;-77
2023/04/09 01:17:25;;;;;;;19.73;11.73;;;;;;;5.07;95.61;92696.09;5116324;27;20397;-77
2023/04/09 01:20:02;;;;;;;21.55;12.25;;;;;;;5.05;96.08;92694.78;5095804;28;20462;-76
2023/04/09 01:22:39;;;;;;;20.60;12.10;;;;;;;5.08;96.55;92689.84;5095537;28;20432;-77
2023/04/09 01:25:18;;;;;;;23.27;12.93;;;;;;;5.09;96.79;92694.03;5095566;28;20028;-77
2023/04/09 01:28:13;;;;;;;19.45;11.98;;;;;;;5.04;96.56;92693.97;5095498;28;20405;-77
2023/04/09 01:30:46;;;;;;;23.67;12.65;;;;;;;5.02;97.17;92688.25;5086162;28;20067;-77
2023/04/09 01:33:14;;;;;;;20.38;12.75;;;;;;;5.00;97.32;92692.94;5116503;27;20176;-77
2023/04/09 01:35:47;;;;;;;20.58;12.82;;;;;;;4.90;96.96;92688.41;5115917;27;20046;-77
2023/04/09 01:38:13;;;;;;;21.90;12.80;;;;;;;4.92;98.28;92701.13;5097838;27;20054;-77
2023/04/09 01:40:39;;;;;;;20.08;12.55;;;;;;;4.92;97.96;92695.94;5115782;27;20043;-77
2023/04/09 01:43:07;;;;;;;19.90;11.55;;;;;;;4.83;98.17;92702.63;5111840;28;20440;-77
2023/04/09 01:45:33;;;;;;;20.10;12.02;;;;;;;4.75;98.09;92701.22;5112230;28;20047;-77
2023/04/09 01:48:01;;;;;;;19.15;11.27;;;;;;;4.64;97.99;92695.19;5095275;28;20397;-77
2023/04/09 01:50:28;;;;;;;18.08;11.35;;;;;;;4.57;98.43;92699.75;5113531;28;20039;-77
2023/04/09 01:52:55;;;;;;;20.60;12.77;;;;;;;4.52;99.65;92697.09;5095034;28;20126;-77
2023/04/09 01:55:20;;;;;;;21.42;12.68;;;;;;;4.47;100.00;92700.44;5077134;28;20028;-77
2023/04/09 01:57:46;;;;;;;22.92;11.82;;;;;;;4.41;100.00;92695.44;5097067;28;20470;-77
2023/04/09 02:00:12;;;;;;;19.52;11.25;;;;;;;4.38;100.00;92692.31;5078016;28;20042;-77
2023/04/09 02:02:47;;;;;;;;;;;;;;;4.35;100.00;92692.00;5113570;27;20035;-76
2023/04/09 02:05:17;;;;;;;20.13;11.65;;;;;;;4.27;100.00;92689.84;5111704;28;19955;-76
2023/04/09 02:07:52;;;;;;;19.30;12.18;;;;;;;4.21;100.00;92694.19;5111429;28;20031;-76
2023/04/09 02:10:21;;;;;;;21.70;12.60;;;;;;;4.16;99.97;92686.34;5111607;28;20118;-75
2023/04/09 02:12:50;;;;;;;17.65;11.52;;;;;;;4.12;100.00;92690.44;5111379;28;20031;-76
2023/04/09 02:15:18;;;;;;;22.85;13.75;;;;;;;4.08;100.00;92691.97;5094441;28;20119;-76
2023/04/09 02:17:44;;;;;;;21.58;12.50;;;;;;;4.03;100.00;92689.28;5112564;28;20049;-76
2023/04/09 02:20:10;;;;;;;21.90;13.07;;;;;;;3.94;100.00;92696.69;5112680;28;20031;-76
2023/04/09 02:22:37;;;;;;;20.75;12.45;;;;;;;3.88;100.00;92688.09;5111404;28;20040;-76
2023/04/09 02:25:04;;;;;;;21.05;12.48;;;;;;;3.78;100.00;92690.53;5111396;28;20050;-76
2023/04/09 02:27:29;;;;;;;26.40;12.48;;;;;;;3.75;100.00;92694.38;5111208;28;20107;-76
2023/04/09 02:29:55;;;;;;;21.45;12.20;;;;;;;3.69;100.00;92695.34;5112071;28;20532;-76
2023/04/09 02:32:20;;;;;;;19.98;12.45;;;;;;;3.62;100.00;92701.72;5112480;28;20062;-76
2023/04/09 02:34:46;;;;;;;21.20;12.38;;;;;;;3.54;100.00;92698.50;5094341;28;20028;-76
2023/04/09 02:37:12;;;;;;;20.65;12.02;;;;;;;3.49;100.00;92701.03;5110960;28;20065;-76
2023/04/09 02:39:37;;;;;;;19.88;11.60;;;;;;;3.48;100.00;92693.50;5110838;28;20074;-76
2023/04/09 02:42:03;;;;;;;20.23;12.15;;;;;;;3.46;100.00;92696.31;5111019;27;20493;-76
2023/04/09 02:44:28;;;;;;;21.13;11.77;;;;;;;3.42;100.00;92700.38;5132674;27;20400;-76
2023/04/09 02:46:56;;;;;;;18.23;11.57;;;;;;;3.39;100.00;92698.28;5097351;27;20084;-76
2023/04/09 02:49:21;;;;;;;22.45;12.02;;;;;;;3.36;100.00;92710.91;5113810;27;20039;-76
2023/04/09 02:51:47;;;;;;;19.67;11.90;;;;;;;3.32;100.00;92708.78;5110483;28;20046;-76
2023/04/09 02:54:14;;;;;;;19.77;11.60;;;;;;;3.29;100.00;92695.56;5113970;27;20057;-76
2023/04/09 02:56:39;;;;;;;18.23;10.75;;;;;;;3.32;100.00;92693.25;5104533;27;20445;-76
2023/04/09 02:59:05;;;;;;;19.02;10.52;;;;;;;3.39;100.00;92703.47;5114153;27;20031;-76
2023/04/09 03:01:31;;;;;;;21.48;11.50;;;;;;;3.32;100.00;92695.84;5114113;27;20027;-76
2023/04/09 03:03:56;;;;;;;18.65;11.18;;;;;;;3.30;100.00;92697.09;5080449;28;20065;-76
2023/04/09 03:06:22;;;;;;;18.10;11.35;;;;;;;3.28;100.00;92699.91;5132575;27;20672;-76
2023/04/09 03:08:47;;;;;;;16.70;10.88;;;;;;;3.25;100.00;92700.41;5080511;27;20019;-76
2023/04/09 03:11:13;;;;;;;15.90;11.00;;;;;;;3.25;100.00;92699.63;5114302;27;20126;-76
2023/04/09 03:13:41;;;;;;;20.40;11.27;;;;;;;3.21;100.00;92694.13;5132805;27;20126;-76
2023/04/09 03:16:09;;;;;;;15.82;10.55;;;;;;;3.19;100.00;92701.34;5108161;28;20062;-76
2023/04/09 03:18:35;;;;;;;18.80;10.68;;;;;;;3.20;100.00;92702.13;5093616;28;20512;-76
2023/04/09 03:21:06;;;;;;;17.15;10.65;;;;;;;3.12;100.00;92685.19;5113709;28;20053;-76
2023/04/09 03:23:33;;;;;;;18.45;10.23;;;;;;;3.14;100.00;92690.91;5113807;28;20031;-77
2023/04/09 03:26:04;;;;;;;17.65;9.80;;;;;;;3.19;100.00;92692.81;5097362;28;20031;-77
2023/04/09 03:28:35;;;;;;;16.42;10.07;;;;;;;3.18;100.00;92699.00;5113974;28;20058;-76
2023/04/09 03:31:01;;;;;;;16.52;10.00;;;;;;;3.16;100.00;92704.41;5097025;28;20039;-76
2023/04/09 03:33:28;;;;;;;16.85;10.38;;;;;;;3.13;100.00;92697.13;5113963;28;20029;-77
2023/04/09 03:35:55;;;;;;;17.75;10.23;;;;;;;3.12;100.00;92701.50;5132418;28;20117;-77
2023/04/09 03:38:47;;;;;;;16.95;10.13;;;;;;;3.10;100.00;92707.91;5126655;28;20425;-77
2023/04/09 03:41:25;;;;;;;13.90;9.30;;;;;;;3.06;100.00;92699.06;5096447;28;20405;-76
2023/04/09 03:43:51;;;;;;;16.73;10.23;;;;;;;3.03;100.00;92695.13;5095923;28;20441;-76
2023/04/09 03:46:22;;;;;;;15.55;9.80;;;;;;;3.00;100.00;92693.03;5093456;28;20039;-76
2023/04/09 03:48:47;;;;;;;15.85;9.38;;;;;;;2.97;100.00;92698.66;5080328;28;20904;-76
2023/04/09 03:51:15;;;;;;;16.50;10.40;;;;;;;2.99;100.00;92701.78;5093377;28;20506;-76
2023/04/09 03:53:46;;;;;;;23.15;11.43;;;;;;;2.98;100.00;92704.63;5093277;28;20505;-76
2023/04/09 03:56:12;;;;;;;19.98;10.52;;;;;;;2.97;100.00;92703.03;5092811;28;20036;-76
2023/04/09 03:58:37;;;;;;;16.38;9.98;;;;;;;2.91;100.00;92709.94;5093531;28;20027;-76
2023/04/09 04:01:04;;;;;;;15.75;9.35;;;;;;;2.87;100.00;92701.09;5095602;28;20366;-76
2023/04/09 04:03:50;;;;;;;17.70;10.60;;;;;;;2.88;100.00;92710.41;5099613;27;20406;-76
2023/04/09 04:06:20;;;;;;;15.38;10.20;;;;;;;2.88;100.00;92702.63;5117841;27;20122;-76
2023/04/09 04:08:54;;;;;;;15.00;9.68;;;;;;;2.86;100.00;92702.91;5135666;27;20043;-76
2023/04/09 04:11:25;;;;;;;16.52;9.52;;;;;;;2.88;100.00;92702.63;5117734;27;20501;-77
2023/04/09 04:13:54;;;;;;;17.52;10.10;;;;;;;2.89;100.00;92706.81;5100916;27;20043;-77
2023/04/09 04:16:21;;;;;;;20.92;9.77;;;;;;;2.88;100.00;92710.41;5117406;27;20581;-77
2023/04/09 04:18:47;;;;;;;16.20;9.68;;;;;;;2.90;100.00;92711.75;5135713;27;20057;-77
2023/04/09 04:21:14;;;;;;;15.18;9.50;;;;;;;2.89;100.00;92709.41;5117064;27;20047;-76
2023/04/09 04:23:43;;;;;;;17.40;9.68;;;;;;;2.87;100.00;92711.44;5117066;27;20065;-77
2023/04/09 04:26:19;;;;;;;18.90;9.40;;;;;;;2.84;100.00;92723.03;5101526;27;20109;-77
2023/04/09 04:28:45;;;;;;;17.00;9.80;;;;;;;2.86;100.00;92722.78;5116736;27;20038;-77
2023/04/09 04:31:20;;;;;;;17.05;10.68;;;;;;;2.82;100.00;92717.31;5116925;27;20039;-76
2023/04/09 04:33:46;;;;;;;20.20;11.57;;;;;;;2.85;100.00;92723.81;5116957;27;20475;-77
2023/04/09 04:36:14;;;;;;;17.48;10.32;;;;;;;2.79;100.00;92727.31;5116686;27;20031;-77
2023/04/09 04:38:49;;;;;;;15.50;9.65;;;;;;;2.71;100.00;92731.84;5101230;27;20493;-77
2023/04/09 04:41:21;;;;;;;18.63;9.80;;;;;;;2.64;100.00;92720.88;5100458;27;20043;-77
2023/04/09 04:43:56;;;;;;;;;;;;;;;2.67;100.00;92725.56;5101335;27;20095;-76
2023/04/09 04:46:23;;;;;;;15.43;9.73;;;;;;;2.63;100.00;92729.63;5116788;27;19951;-77
2023/04/09 04:48:48;;;;;;;18.70;10.02;;;;;;;2.66;100.00;92731.75;5117019;27;20477;-77
2023/04/09 04:51:15;;;;;;;17.92;10.57;;;;;;;2.65;100.00;92737.16;5100014;27;20067;-77
2023/04/09 04:53:47;;;;;;;17.65;10.63;;;;;;;2.64;100.00;92731.19;5116134;27;20042;-77
2023/04/09 04:56:14;;;;;;;18.17;10.18;;;;;;;2.65;100.00;92731.97;5113035;28;20401;-77
2023/04/09 04:58:51;;;;;;;15.38;9.85;;;;;;;2.66;100.00;92729.19;5113636;28;20019;-77
2023/04/09 05:01:18;;;;;;;16.02;9.80;;;;;;;2.67;100.00;92733.31;5113015;28;20035;-77
2023/04/09 05:03:44;;;;;;;15.35;9.80;;;;;;;2.68;100.00;92737.47;5113184;28;20034;-77
2023/04/09 05:06:32;;;;;;;16.52;10.52;;;;;;;2.70;100.00;92747.56;5113206;28;20040;-77
2023/04/09 05:09:00;;;;;;;17.20;10.30;;;;;;;2.73;100.00;92738.59;5112960;28;20485;-77
2023/04/09 05:11:33;;;;;;;14.90;9.65;;;;;;;2.80;100.00;92739.25;5113049;28;20048;-77
2023/04/09 05:13:59;;;;;;;15.23;10.07;;;;;;;2.82;100.00;92737.97;5104762;28;20040;-77
2023/04/09 05:16:24;;;;;;;18.35;10.18;;;;;;;2.85;100.00;92741.91;5113442;28;20024;-77
2023/04/09 05:18:59;;;;;;;15.90;9.50;;;;;;;2.89;100.00;92745.59;5112894;28;20031;-77
2023/04/09 05:21:25;;;;;;;15.90;9.63;;;;;;;2.93;100.00;92744.13;5113953;28;20038;-77
2023/04/09 05:23:53;;;;;;;15.68;10.10;;;;;;;3.00;100.00;92755.09;5112874;28;20051;-77
2023/04/09 05:26:18;;;;;;;16.90;10.02;;;;;;;3.10;100.00;92754.47;5095603;28;20043;-77
2023/04/09 05:28:53;;;;;;;17.38;10.18;;;;;;;3.17;100.00;92749.16;5079835;28;20039;-77
2023/04/09 05:31:21;;;;;;;18.55;10.07;;;;;;;3.28;100.00;92750.91;5086806;27;20134;-77
2023/04/09 05:33:54;;;;;;;15.40;9.68;;;;;;;3.40;100.00;92756.78;5116000;27;20120;-76
2023/04/09 05:36:26;;;;;;;13.45;8.98;;;;;;;3.52;100.00;92757.50;5095335;28;20427;-76
2023/04/09 05:38:51;;;;;;;15.15;9.27;;;;;;;3.71;100.00;92752.06;5078703;28;20035;-76
2023/04/09 05:41:17;;;;;;;16.35;9.50;;;;;;;3.85;100.00;92753.31;5095163;28;20031;-76
2023/04/09 05:44:04;;;;;;;14.00;9.40;;;;;;;4.06;100.00;92763.97;5094932;28;20130;-76
2023/04/09 05:46:30;;;;;;;16.95;9.35;;;;;;;4.26;100.00;92764.22;5095225;28;20118;-76
2023/04/09 05:48:56;;;;;;;14.60;9.90;;;;;;;4.53;100.00;92761.69;5096557;27;20404;-76
2023/04/09 05:51:24;;;;;;;15.32;10.40;;;;;;;4.78;100.00;92768.97;5098536;27;20035;-76
2023/04/09 05:53:50;;;;;;;16.85;10.68;;;;;;;5.03;100.00;92764.28;5109704;28;20039;-76
2023/04/09 05:56:18;;;;;;;16.50;10.48;;;;;;;5.10;100.00;92763.06;5104238;27;20047;-76
2023/04/09 05:58:50;;;;;;;16.23;9.80;;;;;;;5.30;100.00;92766.88;5105204;28;20493;-76
2023/04/09 06:01:16;;;;;;;16.65;9.43;;;;;;;5.48;100.00;92768.34;5094858;27;20039;-76
2023/04/09 06:03:43;;;;;;;14.88;9.38;;;;;;;5.69;100.00;92769.25;5115282;27;20035;-76
2023/04/09 06:06:08;;;;;;;13.75;9.55;;;;;;;5.92;100.00;92773.31;5133837;27;20040;-76
2023/04/09 06:08:34;;;;;;;16.52;10.43;;;;;;;6.12;98.15;92772.69;5098144;27;20047;-76
2023/04/09 06:11:00;;;;;;;20.55;10.93;;;;;;;6.64;95.17;92774.50;5115135;27;20139;-76
2023/04/09 06:13:30;;;;;;;14.10;9.70;;;;;;;7.98;88.79;92767.69;5133451;27;20031;-76
2023/04/09 06:15:58;;;;;;;14.48;9.23;;;;;;;9.24;80.03;92770.16;5114870;27;20080;-76
2023/04/09 06:18:23;;;;;;;13.40;9.27;;;;;;;10.08;72.16;92775.28;5133786;27;20027;-77
2023/04/09 06:20:49;;;;;;;14.10;9.75;;;;;;;10.72;65.75;92775.97;5133337;27;20030;-77
2023/04/09 06:23:15;;;;;;;16.67;10.75;;;;;;;11.34;64.81;92778.59;5114782;27;20031;-77
2023/04/09 06:25:41;;;;;;;15.00;9.88;;;;;;;11.62;63.16;92784.00;5115609;27;20023;-77
2023/04/09 06:28:07;;;;;;;13.43;9.15;;;;;;;12.16;62.63;92776.63;5115474;27;20416;-77
2023/04/09 06:30:35;;;;;;;13.88;9.70;;;;;;;12.52;58.57;92779.44;5134175;27;20100;-77
2023/04/09 06:33:02;;;;;;;14.57;9.32;;;;;;;13.15;59.69;92782.41;5116850;27;20397;-77
2023/04/09 06:35:28;;;;;;;13.07;8.98;;;;;;;13.98;56.81;92776.94;5116493;27;20067;-77
2023/04/09 06:37:55;;;;;;;14.52;8.70;;;;;;;14.19;53.88;92779.91;5117068;27;20393;-77
2023/04/09 06:40:22;;;;;;;13.48;8.50;;;;;;;14.72;53.37;92777.22;5135583;27;20023;-77
2023/04/09 06:42:47;;;;;;;10.70;7.88;;;;;;;15.38;50.60;92776.50;5116549;28;20059;-77
2023/04/09 06:45:21;;;;;;;10.18;7.38;;;;;;;16.07;48.99;92782.91;5134879;28;20095;-77
2023/04/09 06:47:47;;;;;;;11.05;8.55;;;;;;;16.28;48.44;92783.00;5134812;28;20493;-78
2023/04/09 06:50:22;;;;;;;11.38;7.88;;;;;;;16.80;45.41;92781.03;5134922;28;20373;-78
2023/04/09 06:52:48;;;;;;;11.40;7.78;;;;;;;16.35;46.67;92785.97;5135616;28;20043;-79
2023/04/09 06:55:14;;;;;;;10.68;7.88;;;;;;;16.28;46.94;92780.38;5117098;28;20031;-79
2023/04/09 06:57:40;;;;;;;14.98;7.10;;;;;;;16.12;45.99;92793.28;5101096;28;20038;-78
2023/04/09 07:00:08;;;;;;;9.95;7.05;;;;;;;15.72;48.31;92791.59;5116251;28;20088;-77
2023/04/09 07:02:34;;;;;;;10.75;7.88;;;;;;;16.17;47.24;92799.19;5128972;28;20031;-80
2023/04/09 07:05:03;;;;;;;11.75;7.38;;;;;;;14.97;48.34;92790.81;5135542;28;20027;-77
2023/04/09 07:07:45;;;;;;;8.95;7.28;;;;;;;14.29;51.59;92793.56;5102748;28;20055;-78
2023/04/09 07:10:20;;;;;;;10.02;7.75;;;;;;;13.41;55.47;92794.00;5119156;28;20104;-78
2023/04/09 07:12:45;;;;;;;11.18;7.60;;;;;;;13.35;54.54;92803.06;5119334;28;20527;-79
2023/04/09 07:15:18;;;;;;;10.05;7.85;;;;;;;12.67;56.85;92802.00;5119011;28;20023;-78
2023/04/09 07:18:21;;;;;;;13.57;7.28;;;;;;;12.43;58.12;92799.53;5135567;28;20035;-78
2023/04/09 07:20:54;;;;;;;15.90;7.57;;;;;;;12.16;59.58;92792.38;5131184;28;20107;-78
2023/04/09 07:23:21;;;;;;;9.93;7.68;;;;;;;12.02;60.21;92790.50;5135334;28;20484;-78
2023/04/09 07:26:04;;;;;;;13.23;8.20;;;;;;;11.73;59.74;92795.91;5107011;28;20504;-78
2023/04/09 07:28:29;;;;;;;11.77;8.68;;;;;;;12.19;61.05;92792.56;5131036;28;20031;-78
2023/04/09 07:30:56;;;;;;;12.27;8.82;;;;;;;11.73;59.75;92792.47;5132570;28;20578;-77
2023/04/09 07:33:24;;;;;;;13.73;8.55;;;;;;;11.72;60.86;92801.44;5113958;28;20039;-77
2023/04/09 07:35:50;;;;;;;12.70;8.32;;;;;;;12.06;61.34;92795.94;5134303;27;20111;-78
2023/04/09 07:38:18;;;;;;;13.60;7.68;;;;;;;11.91;60.22;92796.97;5136059;28;20114;-77
2023/04/09 07:40:44;;;;;;;11.38;8.05;;;;;;;11.86;59.99;92795.16;5117426;28;20081;-77
2023/04/09 07:43:10;;;;;;;11.45;8.25;;;;;;;12.01;61.27;92802.06;5059232;27;1179260;-77
2023/04/09 07:45:38;;;;;;;13.23;9.15;;;;;;;12.18;60.08;92796.28;5135152;27;20134;-78
2023/04/09 07:48:03;;;;;;;10.75;6.40;;;;;;;12.33;58.11;92797.09;5105658;27;20241;-77
2023/04/09 07:50:29;;;;;;;12.18;8.45;;;;;;;12.16;60.26;92798.41;5127533;27;20109;-77
2023/04/09 07:52:54;;;;;;;13.27;9.25;;;;;;;12.19;58.63;92797.81;5132177;27;20034;-77
2023/04/09 07:55:20;;;;;;;12.30;7.07;;;;;;;11.77;59.07;92804.75;5137702;27;20047;-77
2023/04/09 07:57:47;;;;;;;12.50;8.70;;;;;;;11.51;61.26;92806.19;5115495;27;20027;-77
2023/04/09 08:00:13;;;;;;;13.70;9.13;;;;;;;11.23;61.86;92808.63;5131588;27;20160;-76
2023/04/09 08:02:38;;;;;;;12.52;8.18;;;;;;;10.76;63.30;92805.78;5135913;27;20122;-77
2023/04/09 08:05:05;;;;;;;10.80;5.80;;;;;;;10.65;63.92;92806.16;5118240;27;20105;-77
2023/04/09 08:07:33;;;;;;;7.50;5.03;;;;;;;10.05;65.70;92806.44;5117712;27;20405;-77
2023/04/09 08:09:59;;;;;;;9.95;5.75;;;;;;;10.04;67.42;92807.47;5126521;27;20032;-77
2023/04/09 08:12:24;;;;;;;11.25;8.00;;;;;;;10.40;66.62;92810.59;5116774;28;20038;-78
2023/04/09 08:14:50;;;;;;;13.85;8.88;;;;;;;10.46;65.44;92813.94;5097036;28;20043;-77
2023/04/09 08:17:15;;;;;;;12.75;9.18;;;;;;;10.48;65.21;92815.22;5116873;28;20028;-77
2023/04/09 08:19:43;;;;;;;14.80;8.50;;;;;;;10.55;66.07;92812.28;5098652;28;20092;-77
2023/04/09 08:22:09;;;;;;;11.70;8.65;;;;;;;10.94;64.42;92817.38;5129615;27;20389;-77
2023/04/09 08:24:38;;;;;;;13.50;8.95;;;;;;;11.14;65.75;92812.94;5136837;27;20046;-77
2023/04/09 08:27:08;;;;;;;13.98;8.85;;;;;;;11.13;64.26;92814.00;5118483;27;20134;-77
2023/04/09 08:29:37;;;;;;;11.77;8.70;;;;;;;10.68;66.01;92810.84;5136679;27;20500;-77
2023/04/09 08:32:03;;;;;;;12.65;8.55;;;;;;;10.62;64.67;92816.13;5119315;27;20050;-78
2023/04/09 08:34:28;;;;;;;14.13;8.95;;;;;;;10.96;65.12;92822.31;5131091;27;20023;-77
2023/04/09 08:36:54;;;;;;;11.15;7.20;;;;;;;11.13;63.64;92825.28;5132913;27;20404;-76
2023/04/09 08:39:20;;;;;;;13.85;8.25;;;;;;;10.34;65.92;92824.81;5115006;27;20031;-76
2023/04/09 08:41:49;;;;;;;13.13;7.68;;;;;;;10.65;65.11;92825.28;5119989;27;20042;-78
2023/04/09 08:44:15;;;;;;;12.85;7.53;;;;;;;10.75;65.34;92829.63;5113370;28;20135;-76
2023/04/09 08:46:41;;;;;;;11.05;7.53;;;;;;;11.15;63.13;92832.84;5114003;28;20027;-76
2023/04/09 08:49:07;;;;;;;12.43;8.75;;;;;;;11.42;62.67;92832.25;5127987;27;20500;-78
2023/04/09 08:51:33;;;;;;;12.18;7.00;;;;;;;11.76;60.81;92828.66;5136011;27;20114;-78
2023/04/09 08:54:00;;;;;;;13.07;7.07;;;;;;;11.90;61.39;92820.88;5113384;28;20558;-78
2023/04/09 08:56:26;;;;;;;10.70;7.03;;;;;;;11.83;63.44;92821.97;5115785;28;20091;-78
2023/04/09 08:58:53;;;;;;;9.98;7.07;;;;;;;11.73;60.77;92824.75;5116340;28;20039;-77
2023/04/09 09:01:30;;;;;;;12.43;7.10;;;;;;;11.24;61.87;92821.47;5115572;28;20036;-78
2023/04/09 09:04:00;;;;;;;11.40;6.97;;;;;;;11.02;62.37;92829.84;5115680;28;20397;-78
2023/04/09 09:06:31;;;;;;;10.35;6.75;;;;;;;11.00;64.94;92826.72;5115123;28;20428;-77
2023/04/09 09:09:17;;;;;;;9.63;6.70;;;;;;;11.21;59.96;92827.28;5113739;27;20035;-77
2023/04/09 09:11:49;;;;;;;9.70;6.07;;;;;;;11.50;60.31;92825.59;5135570;27;20216;-77
2023/04/09 09:14:17;;;;;;;9.05;5.40;;;;;;;11.39;58.86;92830.97;5136419;27;20122;-77
2023/04/09 09:16:55;;;;;;;11.65;6.82;;;;;;;11.68;60.30;92832.66;5117174;27;20091;-77
2023/04/09 09:19:24;;;;;;;8.70;6.38;;;;;;;11.33;59.60;92823.47;5117390;27;20071;-77
2023/04/09 09:21:56;;;;;;;9.43;6.30;;;;;;;11.62;60.35;92818.88;5135506;27;20493;-77
2023/04/09 09:24:22;;;;;;;;;;;;;;;11.75;60.01;92822.59;5117555;27;20432;-77
2023/04/09 09:26:47;;;;;;;8.68;5.80;;;;;;;11.99;57.18;92816.53;5126818;27;20112;-77
2023/04/09 09:29:13;;;;;;;8.30;6.10;;;;;;;12.24;57.75;92805.59;5114108;28;20118;-77
2023/04/09 09:31:50;;;;;;;8.15;5.00;;;;;;;12.25;57.21;92801.94;5096240;28;20051;-77
2023/04/09 09:34:16;;;;;;;11.10;6.15;;;;;;;12.06;56.82;92814.31;5095965;28;20066;-77
2023/04/09 09:36:43;;;;;;;8.77;5.13;;;;;;;11.56;57.23;92821.84;5115087;27;20059;-77
2023/04/09 09:39:09;;;;;;;9.85;6.30;;;;;;;11.77;58.59;92823.09;5121436;27;20507;-77
2023/04/09 09:41:35;;;;;;;10.68;7.35;;;;;;;12.14;58.31;92821.53;5096375;27;20123;-77
2023/04/09 09:44:02;;;;;;;6.70;4.65;;;;;;;12.47;55.97;92813.63;5122290;27;20043;-78
2023/04/09 09:46:32;;;;;;;8.07;5.35;;;;;;;12.30;54.17;92808.94;5122085;27;20118;-77
2023/04/09 09:48:58;;;;;;;10.57;5.45;;;;;;;11.68;56.94;92809.06;5106311;27;20401;-77
2023/04/09 09:51:26;;;;;;;8.52;5.20;;;;;;;11.43;56.91;92808.34;5129996;27;20058;-77
2023/04/09 09:53:55;;;;;;;6.38;4.53;;;;;;;10.94;56.74;92816.56;5122832;27;20039;-77
2023/04/09 09:56:31;;;;;;;8.75;6.03;;;;;;;10.41;58.54;92815.56;5113924;28;20122;-77
2023/04/09 09:59:21;;;;;;;6.95;4.82;;;;;;;10.15;57.01;92812.34;5113021;28;20460;-76
2023/04/09 10:01:53;;;;;;;11.15;5.78;;;;;;;10.01;59.32;92801.75;5122678;27;20031;-77
2023/04/09 10:04:20;;;;;;;7.13;4.47;;;;;;;10.11;59.46;92806.13;5115383;27;20516;-77
2023/04/09 10:06:47;;;;;;;9.20;4.63;;;;;;;10.29;60.24;92812.53;5133708;27;20440;-77
2023/04/09 10:09:12;;;;;;;10.88;4.90;;;;;;;11.16;58.57;92808.97;5132855;27;20093;-77
2023/04/09 10:11:42;;;;;;;7.22;5.38;;;;;;;11.25;58.66;92796.03;5133628;27;20504;-77
2023/04/09 10:14:08;;;;;;;5.20;3.60;;;;;;;11.15;56.68;92796.19;5115908;27;20049;-77
2023/04/09 10:16:34;;;;;;;7.55;4.82;;;;;;;10.58;58.87;92804.66;5133462;27;20023;-77
2023/04/09 10:19:00;;;;;;;6.70;4.38;;;;;;;10.82;57.03;92793.41;5115023;27;20114;-77
2023/04/09 10:21:52;;;;;;;7.28;3.92;;;;;;;11.01;58.48;92796.84;5133376;27;20138;-77
2023/04/09 10:24:18;;;;;;;6.15;4.10;;;;;;;11.51;57.32;92795.69;5128750;27;20035;-77
2023/04/09 10:26:44;;;;;;;8.57;4.10;;;;;;;11.63;56.09;92790.78;5111973;27;20061;-77
2023/04/09 10:29:14;;;;;;;5.75;4.07;;;;;;;10.88;56.61;92787.06;5133104;27;20050;-77
2023/04/09 10:32:05;;;;;;;11.38;4.68;;;;;;;10.51;59.66;92779.88;5133144;27;20485;-77
2023/04/09 10:34:38;;;;;;;9.88;5.13;;;;;;;10.59;59.43;92780.03;5133103;27;20515;-77
2023/04/09 10:37:05;;;;;;;;;;;;;;;11.12;58.84;92781.00;5129542;27;20156;-77
2023/04/09 10:39:31;;;;;;;8.30;5.45;;;;;;;10.96;60.22;92783.81;5112575;28;20045;-77
2023/04/09 10:41:59;;;;;;;8.18;5.50;;;;;;;10.89;60.82;92788.59;5106096;27;20027;-77
2023/04/09 10:44:27;;;;;;;9.32;5.00;;;;;;;10.71;60.74;92781.50;5118092;27;20096;-77
2023/04/09 10:46:53;;;;;;;8.23;5.30;;;;;;;11.23;59.31;92782.44;5124058;27;20493;-77
2023/04/09 10:49:24;;;;;;;5.88;3.58;;;;;;;10.75;60.98;92774.63;5114857;27;20050;-77
2023/04/09 10:52:09;;;;;;;7.22;4.60;;;;;;;10.51;61.57;92775.41;5114154;27;20038;-77
2023/04/09 10:54:42;;;;;;;9.40;5.80;;;;;;;10.43;61.66;92770.03;5132589;27;20446;-77
2023/04/09 10:57:12;;;;;;;8.98;6.03;;;;;;;10.55;62.35;92765.16;5132623;27;20088;-77
2023/04/09 10:59:47;;;;;;;8.70;5.93;;;;;;;10.32;63.59;92761.50;5114849;27;20343;-77
2023/04/09 11:02:44;;;;;;;9.27;5.72;;;;;;;10.33;63.11;92760.41;5132737;27;20377;-77
2023/04/09 11:05:19;;;;;;;9.50;6.20;;;;;;;10.17;62.96;92751.91;5128497;27;20046;-77
2023/04/09 11:07:51;;;;;;;12.10;6.18;;;;;;;10.43;62.77;92743.84;5132563;27;20035;-77
2023/04/09 11:10:18;;;;;;;6.70;4.65;;;;;;;11.19;60.07;92745.53;5132742;27;20114;-77
2023/04/09 11:12:47;;;;;;;7.95;4.82;;;;;;;11.72;59.93;92741.88;5132757;27;20548;-77
2023/04/09 11:15:17;;;;;;;8.15;4.97;;;;;;;11.98;58.32;92733.63;5114557;27;20069;-77
2023/04/09 11:17:43;;;;;;;7.90;5.32;;;;;;;12.02;56.46;92731.97;5132992;27;20572;-77
2023/04/09 11:20:09;;;;;;;9.40;5.70;;;;;;;11.80;56.13;92736.00;5131956;27;20019;-77
2023/04/09 11:22:35;;;;;;;7.72;5.13;;;;;;;12.13;54.36;92730.75;5132745;28;20039;-77
2023/04/09 11:25:01;;;;;;;8.25;5.18;;;;;;;12.11;55.12;92740.75;5133242;28;20027;-77
2023/04/09 11:27:27;;;;;;;7.97;5.05;;;;;;;12.22;56.04;92722.97;5111214;28;20043;-77
2023/04/09 11:29:56;;;;;;;7.68;4.80;;;;;;;12.17;55.83;92728.34;5110772;28;20043;-77
2023/04/09 11:32:21;;;;;;;8.75;5.00;;;;;;;12.39;56.51;92715.31;5112420;28;20118;-77
2023/04/09 11:34:47;;;;;;;7.30;4.80;;;;;;;12.38;54.10;92726.09;5128053;28;20172;-77